sensor_id;sensor_type;location;lat;lon;timestamp;P1;durP1;ratioP1;P2;durP2;ratioP2
42294;SDS011;27947;47.556;18.718;2024-01-30T00:00:28;25.17;;;13.25;;
42294;SDS011;27947;47.556;18.718;2024-01-30T00:02:53;24.00;;;13.50;;
42294;SDS011;27947;47.556;18.718;2024-01-30T00:05:18;22.55;;;13.02;;
42294;SDS011;27947;47.556;18.718;2024-01-30T00:07:43;24.77;;;13.32;;
42294;SDS011;27947;47.556;18.718;2024-01-30T00:10:09;20.90;;;12.10;;
42294;SDS011;27947;47.556;18.718;2024-01-30T00:12:34;27.42;;;13.48;;
42294;SDS011;27947;47.556;18.718;2024-01-30T00:14:59;22.92;;;12.50;;
42294;SDS011;27947;47.556;18.718;2024-01-30T00:17:24;22.92;;;12.70;;
42294;SDS011;27947;47.556;18.718;2024-01-30T00:19:51;22.40;;;12.63;;
42294;SDS011;27947;47.556;18.718;2024-01-30T00:22:17;23.88;;;13.20;;
42294;SDS011;27947;47.556;18.718;2024-01-30T00:24:42;27.08;;;12.50;;
42294;SDS011;27947;47.556;18.718;2024-01-30T00:27:08;22.17;;;11.50;;
42294;SDS011;27947;47.556;18.718;2024-01-30T00:29:33;24.98;;;11.75;;
42294;SDS011;27947;47.556;18.718;2024-01-30T00:31:59;21.67;;;11.50;;
42294;SDS011;27947;47.556;18.718;2024-01-30T00:34:24;23.83;;;11.50;;
42294;SDS011;27947;47.556;18.718;2024-01-30T00:36:49;25.20;;;11.27;;
42294;SDS011;27947;47.556;18.718;2024-01-30T00:39:14;22.42;;;11.50;;
42294;SDS011;27947;47.556;18.718;2024-01-30T00:41:41;24.45;;;10.95;;
42294;SDS011;27947;47.556;18.718;2024-01-30T00:44:06;24.20;;;12.02;;
42294;SDS011;27947;47.556;18.718;2024-01-30T00:46:31;23.27;;;12.15;;
42294;SDS011;27947;47.556;18.718;2024-01-30T00:48:56;22.58;;;11.88;;
42294;SDS011;27947;47.556;18.718;2024-01-30T00:51:22;20.63;;;11.48;;
42294;SDS011;27947;47.556;18.718;2024-01-30T00:53:47;22.35;;;11.30;;
42294;SDS011;27947;47.556;18.718;2024-01-30T00:56:12;23.40;;;11.77;;
42294;SDS011;27947;47.556;18.718;2024-01-30T00:58:38;21.63;;;11.48;;
42294;SDS011;27947;47.556;18.718;2024-01-30T01:01:03;26.77;;;12.07;;
42294;SDS011;27947;47.556;18.718;2024-01-30T01:03:29;25.05;;;11.55;;
42294;SDS011;27947;47.556;18.718;2024-01-30T01:05:54;20.45;;;11.80;;
42294;SDS011;27947;47.556;18.718;2024-01-30T01:08:20;22.20;;;12.10;;
42294;SDS011;27947;47.556;18.718;2024-01-30T01:10:45;22.90;;;11.32;;
42294;SDS011;27947;47.556;18.718;2024-01-30T01:13:10;25.90;;;12.95;;
42294;SDS011;27947;47.556;18.718;2024-01-30T01:15:35;23.95;;;12.02;;
42294;SDS011;27947;47.556;18.718;2024-01-30T01:18:01;24.10;;;12.52;;
42294;SDS011;27947;47.556;18.718;2024-01-30T01:20:26;21.98;;;11.98;;
42294;SDS011;27947;47.556;18.718;2024-01-30T01:22:51;23.85;;;12.25;;
42294;SDS011;27947;47.556;18.718;2024-01-30T01:25:17;21.65;;;12.18;;
42294;SDS011;27947;47.556;18.718;2024-01-30T01:27:43;24.13;;;12.82;;
42294;SDS011;27947;47.556;18.718;2024-01-30T01:30:10;22.38;;;12.23;;
42294;SDS011;27947;47.556;18.718;2024-01-30T01:32:36;23.08;;;13.15;;
42294;SDS011;27947;47.556;18.718;2024-01-30T01:35:01;26.27;;;13.50;;
42294;SDS011;27947;47.556;18.718;2024-01-30T01:37:27;28.85;;;12.60;;
42294;SDS011;27947;47.556;18.718;2024-01-30T01:39:52;24.08;;;13.13;;
42294;SDS011;27947;47.556;18.718;2024-01-30T01:42:17;26.15;;;13.40;;
42294;SDS011;27947;47.556;18.718;2024-01-30T01:44:43;27.60;;;13.50;;
42294;SDS011;27947;47.556;18.718;2024-01-30T01:47:08;24.63;;;12.93;;
42294;SDS011;27947;47.556;18.718;2024-01-30T01:49:33;28.50;;;13.27;;
42294;SDS011;27947;47.556;18.718;2024-01-30T01:51:59;25.98;;;13.52;;
42294;SDS011;27947;47.556;18.718;2024-01-30T01:54:25;30.88;;;14.55;;
42294;SDS011;27947;47.556;18.718;2024-01-30T01:56:51;27.58;;;13.25;;
42294;SDS011;27947;47.556;18.718;2024-01-30T01:59:16;25.73;;;13.40;;
42294;SDS011;27947;47.556;18.718;2024-01-30T02:01:42;28.27;;;13.73;;
42294;SDS011;27947;47.556;18.718;2024-01-30T02:04:08;27.08;;;13.75;;
42294;SDS011;27947;47.556;18.718;2024-01-30T02:06:36;24.02;;;13.80;;
42294;SDS011;27947;47.556;18.718;2024-01-30T02:09:02;24.23;;;13.38;;
42294;SDS011;27947;47.556;18.718;2024-01-30T02:11:29;24.27;;;13.20;;
42294;SDS011;27947;47.556;18.718;2024-01-30T02:13:55;24.25;;;13.25;;
42294;SDS011;27947;47.556;18.718;2024-01-30T02:16:20;21.73;;;12.13;;
42294;SDS011;27947;47.556;18.718;2024-01-30T02:18:45;29.98;;;13.23;;
42294;SDS011;27947;47.556;18.718;2024-01-30T02:21:14;22.98;;;11.98;;
42294;SDS011;27947;47.556;18.718;2024-01-30T02:23:39;22.48;;;12.40;;
42294;SDS011;27947;47.556;18.718;2024-01-30T02:26:04;24.90;;;12.95;;
42294;SDS011;27947;47.556;18.718;2024-01-30T02:28:30;24.30;;;13.32;;
42294;SDS011;27947;47.556;18.718;2024-01-30T02:30:55;22.50;;;12.45;;
42294;SDS011;27947;47.556;18.718;2024-01-30T02:33:20;24.73;;;11.98;;
42294;SDS011;27947;47.556;18.718;2024-01-30T02:35:47;25.35;;;12.60;;
42294;SDS011;27947;47.556;18.718;2024-01-30T02:38:12;21.83;;;12.40;;
42294;SDS011;27947;47.556;18.718;2024-01-30T02:40:37;24.63;;;13.70;;
42294;SDS011;27947;47.556;18.718;2024-01-30T02:43:03;26.23;;;13.48;;
42294;SDS011;27947;47.556;18.718;2024-01-30T02:45:28;23.25;;;12.32;;
42294;SDS011;27947;47.556;18.718;2024-01-30T02:47:53;26.85;;;12.88;;
42294;SDS011;27947;47.556;18.718;2024-01-30T02:50:19;23.88;;;12.90;;
42294;SDS011;27947;47.556;18.718;2024-01-30T02:52:44;23.73;;;11.98;;
42294;SDS011;27947;47.556;18.718;2024-01-30T02:55:09;21.67;;;12.77;;
42294;SDS011;27947;47.556;18.718;2024-01-30T02:57:35;25.45;;;12.90;;
42294;SDS011;27947;47.556;18.718;2024-01-30T03:00:00;24.40;;;12.88;;
42294;SDS011;27947;47.556;18.718;2024-01-30T03:02:26;27.92;;;13.32;;
42294;SDS011;27947;47.556;18.718;2024-01-30T03:04:51;23.83;;;13.93;;
42294;SDS011;27947;47.556;18.718;2024-01-30T03:07:16;26.13;;;14.05;;
42294;SDS011;27947;47.556;18.718;2024-01-30T03:09:41;21.52;;;13.00;;
42294;SDS011;27947;47.556;18.718;2024-01-30T03:12:08;25.42;;;14.02;;
42294;SDS011;27947;47.556;18.718;2024-01-30T03:14:33;27.20;;;13.82;;
42294;SDS011;27947;47.556;18.718;2024-01-30T03:16:58;27.95;;;14.30;;
42294;SDS011;27947;47.556;18.718;2024-01-30T03:19:23;27.58;;;13.73;;
42294;SDS011;27947;47.556;18.718;2024-01-30T03:21:49;25.80;;;13.60;;
42294;SDS011;27947;47.556;18.718;2024-01-30T03:24:14;26.95;;;13.95;;
42294;SDS011;27947;47.556;18.718;2024-01-30T03:26:39;30.65;;;14.68;;
42294;SDS011;27947;47.556;18.718;2024-01-30T03:29:05;27.90;;;15.20;;
42294;SDS011;27947;47.556;18.718;2024-01-30T03:31:30;26.85;;;14.18;;
42294;SDS011;27947;47.556;18.718;2024-01-30T03:33:55;27.15;;;14.60;;
42294;SDS011;27947;47.556;18.718;2024-01-30T03:36:20;28.70;;;15.43;;
42294;SDS011;27947;47.556;18.718;2024-01-30T03:38:46;27.60;;;14.15;;
42294;SDS011;27947;47.556;18.718;2024-01-30T03:41:11;29.27;;;14.25;;
42294;SDS011;27947;47.556;18.718;2024-01-30T03:43:36;27.35;;;14.20;;
42294;SDS011;27947;47.556;18.718;2024-01-30T03:46:02;26.63;;;13.93;;
42294;SDS011;27947;47.556;18.718;2024-01-30T03:48:28;29.08;;;15.38;;
42294;SDS011;27947;47.556;18.718;2024-01-30T03:50:53;30.38;;;15.02;;
42294;SDS011;27947;47.556;18.718;2024-01-30T03:53:19;27.23;;;14.68;;
42294;SDS011;27947;47.556;18.718;2024-01-30T03:55:44;33.67;;;15.70;;
42294;SDS011;27947;47.556;18.718;2024-01-30T03:58:09;29.50;;;15.50;;
42294;SDS011;27947;47.556;18.718;2024-01-30T04:00:34;29.67;;;15.20;;
42294;SDS011;27947;47.556;18.718;2024-01-30T04:03:00;31.10;;;15.15;;
42294;SDS011;27947;47.556;18.718;2024-01-30T04:05:25;33.92;;;16.50;;
42294;SDS011;27947;47.556;18.718;2024-01-30T04:07:50;31.92;;;15.90;;
42294;SDS011;27947;47.556;18.718;2024-01-30T04:10:16;28.88;;;15.50;;
42294;SDS011;27947;47.556;18.718;2024-01-30T04:12:41;26.98;;;14.88;;
42294;SDS011;27947;47.556;18.718;2024-01-30T04:15:06;29.38;;;15.27;;
42294;SDS011;27947;47.556;18.718;2024-01-30T04:17:32;29.15;;;16.05;;
42294;SDS011;27947;47.556;18.718;2024-01-30T04:19:58;28.65;;;15.23;;
42294;SDS011;27947;47.556;18.718;2024-01-30T04:22:23;30.45;;;15.82;;
42294;SDS011;27947;47.556;18.718;2024-01-30T04:24:48;28.75;;;15.75;;
42294;SDS011;27947;47.556;18.718;2024-01-30T04:27:13;30.02;;;15.88;;
42294;SDS011;27947;47.556;18.718;2024-01-30T04:29:39;29.67;;;15.80;;
42294;SDS011;27947;47.556;18.718;2024-01-30T04:32:04;29.95;;;15.77;;
42294;SDS011;27947;47.556;18.718;2024-01-30T04:34:29;32.70;;;16.65;;
42294;SDS011;27947;47.556;18.718;2024-01-30T04:36:55;28.77;;;15.85;;
42294;SDS011;27947;47.556;18.718;2024-01-30T04:39:20;33.22;;;16.67;;
42294;SDS011;27947;47.556;18.718;2024-01-30T04:41:45;34.08;;;16.70;;
42294;SDS011;27947;47.556;18.718;2024-01-30T04:44:10;31.30;;;15.57;;
42294;SDS011;27947;47.556;18.718;2024-01-30T04:46:36;32.38;;;15.20;;
42294;SDS011;27947;47.556;18.718;2024-01-30T04:49:01;27.48;;;13.93;;
42294;SDS011;27947;47.556;18.718;2024-01-30T04:51:26;30.98;;;15.75;;
42294;SDS011;27947;47.556;18.718;2024-01-30T04:53:52;28.60;;;15.40;;
42294;SDS011;27947;47.556;18.718;2024-01-30T04:56:17;30.95;;;14.65;;
42294;SDS011;27947;47.556;18.718;2024-01-30T04:58:42;28.60;;;15.63;;
42294;SDS011;27947;47.556;18.718;2024-01-30T05:01:08;27.17;;;14.30;;
42294;SDS011;27947;47.556;18.718;2024-01-30T05:03:33;24.98;;;14.32;;
42294;SDS011;27947;47.556;18.718;2024-01-30T05:05:59;26.63;;;14.27;;
42294;SDS011;27947;47.556;18.718;2024-01-30T05:08:25;25.00;;;13.98;;
42294;SDS011;27947;47.556;18.718;2024-01-30T05:10:50;29.83;;;14.27;;
42294;SDS011;27947;47.556;18.718;2024-01-30T05:13:15;28.40;;;14.15;;
42294;SDS011;27947;47.556;18.718;2024-01-30T05:15:40;24.45;;;14.75;;
42294;SDS011;27947;47.556;18.718;2024-01-30T05:18:06;28.65;;;14.70;;
42294;SDS011;27947;47.556;18.718;2024-01-30T05:20:31;27.83;;;15.13;;
42294;SDS011;27947;47.556;18.718;2024-01-30T05:22:56;27.35;;;14.02;;
42294;SDS011;27947;47.556;18.718;2024-01-30T05:25:22;28.33;;;14.55;;
42294;SDS011;27947;47.556;18.718;2024-01-30T05:27:48;25.85;;;14.32;;
42294;SDS011;27947;47.556;18.718;2024-01-30T05:30:13;23.95;;;13.65;;
42294;SDS011;27947;47.556;18.718;2024-01-30T05:32:38;28.75;;;13.48;;
42294;SDS011;27947;47.556;18.718;2024-01-30T05:35:04;27.75;;;14.07;;
42294;SDS011;27947;47.556;18.718;2024-01-30T05:37:29;30.65;;;14.38;;
42294;SDS011;27947;47.556;18.718;2024-01-30T05:39:55;29.08;;;15.38;;
42294;SDS011;27947;47.556;18.718;2024-01-30T05:42:20;28.95;;;14.90;;
42294;SDS011;27947;47.556;18.718;2024-01-30T05:44:45;29.33;;;14.68;;
42294;SDS011;27947;47.556;18.718;2024-01-30T05:47:10;29.88;;;15.00;;
42294;SDS011;27947;47.556;18.718;2024-01-30T05:49:36;26.15;;;14.85;;
42294;SDS011;27947;47.556;18.718;2024-01-30T05:52:02;30.42;;;15.60;;
42294;SDS011;27947;47.556;18.718;2024-01-30T05:54:28;27.95;;;15.75;;
42294;SDS011;27947;47.556;18.718;2024-01-30T05:56:53;28.15;;;16.08;;
42294;SDS011;27947;47.556;18.718;2024-01-30T05:59:18;31.55;;;16.70;;
42294;SDS011;27947;47.556;18.718;2024-01-30T06:01:47;37.63;;;18.67;;
42294;SDS011;27947;47.556;18.718;2024-01-30T06:04:12;37.90;;;18.67;;
42294;SDS011;27947;47.556;18.718;2024-01-30T06:06:38;31.73;;;17.27;;
42294;SDS011;27947;47.556;18.718;2024-01-30T06:09:03;33.72;;;17.98;;
42294;SDS011;27947;47.556;18.718;2024-01-30T06:11:28;33.97;;;18.40;;
42294;SDS011;27947;47.556;18.718;2024-01-30T06:13:53;37.20;;;16.98;;
42294;SDS011;27947;47.556;18.718;2024-01-30T06:16:19;30.55;;;16.65;;
42294;SDS011;27947;47.556;18.718;2024-01-30T06:18:46;33.30;;;16.20;;
42294;SDS011;27947;47.556;18.718;2024-01-30T06:21:11;30.30;;;14.77;;
42294;SDS011;27947;47.556;18.718;2024-01-30T06:23:36;30.02;;;15.10;;
42294;SDS011;27947;47.556;18.718;2024-01-30T06:26:02;28.52;;;14.98;;
42294;SDS011;27947;47.556;18.718;2024-01-30T06:28:27;28.95;;;13.85;;
42294;SDS011;27947;47.556;18.718;2024-01-30T06:30:52;24.13;;;13.23;;
42294;SDS011;27947;47.556;18.718;2024-01-30T06:33:17;25.75;;;13.20;;
42294;SDS011;27947;47.556;18.718;2024-01-30T06:35:43;27.17;;;13.65;;
42294;SDS011;27947;47.556;18.718;2024-01-30T06:38:10;26.67;;;14.30;;
42294;SDS011;27947;47.556;18.718;2024-01-30T06:40:35;22.83;;;13.15;;
42294;SDS011;27947;47.556;18.718;2024-01-30T06:43:01;25.90;;;13.77;;
42294;SDS011;27947;47.556;18.718;2024-01-30T06:45:26;23.67;;;13.40;;
42294;SDS011;27947;47.556;18.718;2024-01-30T06:47:52;25.27;;;14.18;;
42294;SDS011;27947;47.556;18.718;2024-01-30T06:50:17;24.80;;;13.05;;
42294;SDS011;27947;47.556;18.718;2024-01-30T06:52:42;24.70;;;13.88;;
42294;SDS011;27947;47.556;18.718;2024-01-30T06:55:08;25.88;;;14.20;;
42294;SDS011;27947;47.556;18.718;2024-01-30T06:57:33;24.45;;;13.20;;
42294;SDS011;27947;47.556;18.718;2024-01-30T06:59:58;24.60;;;14.02;;
42294;SDS011;27947;47.556;18.718;2024-01-30T07:02:24;23.63;;;13.13;;
42294;SDS011;27947;47.556;18.718;2024-01-30T07:04:49;23.25;;;13.20;;
42294;SDS011;27947;47.556;18.718;2024-01-30T07:07:14;22.38;;;14.10;;
42294;SDS011;27947;47.556;18.718;2024-01-30T07:09:40;32.03;;;15.43;;
42294;SDS011;27947;47.556;18.718;2024-01-30T07:12:06;29.92;;;15.23;;
42294;SDS011;27947;47.556;18.718;2024-01-30T07:14:31;24.77;;;13.85;;
42294;SDS011;27947;47.556;18.718;2024-01-30T07:16:56;30.65;;;16.20;;
42294;SDS011;27947;47.556;18.718;2024-01-30T07:19:22;30.65;;;15.13;;
42294;SDS011;27947;47.556;18.718;2024-01-30T07:21:47;29.95;;;15.45;;
42294;SDS011;27947;47.556;18.718;2024-01-30T07:24:12;25.67;;;13.88;;
42294;SDS011;27947;47.556;18.718;2024-01-30T07:26:38;29.35;;;14.65;;
42294;SDS011;27947;47.556;18.718;2024-01-30T07:29:03;29.98;;;14.90;;
42294;SDS011;27947;47.556;18.718;2024-01-30T07:31:29;28.23;;;15.48;;
42294;SDS011;27947;47.556;18.718;2024-01-30T07:33:54;41.05;;;19.65;;
42294;SDS011;27947;47.556;18.718;2024-01-30T07:36:19;32.00;;;16.58;;
42294;SDS011;27947;47.556;18.718;2024-01-30T07:38:45;52.75;;;26.52;;
42294;SDS011;27947;47.556;18.718;2024-01-30T07:41:10;39.97;;;21.02;;
42294;SDS011;27947;47.556;18.718;2024-01-30T07:43:35;39.38;;;20.90;;
42294;SDS011;27947;47.556;18.718;2024-01-30T07:46:01;31.17;;;17.90;;
42294;SDS011;27947;47.556;18.718;2024-01-30T07:48:27;32.20;;;18.00;;
42294;SDS011;27947;47.556;18.718;2024-01-30T07:50:53;45.30;;;22.75;;
42294;SDS011;27947;47.556;18.718;2024-01-30T07:53:18;39.33;;;20.77;;
42294;SDS011;27947;47.556;18.718;2024-01-30T07:55:59;33.90;;;17.83;;
42294;SDS011;27947;47.556;18.718;2024-01-30T07:58:24;34.95;;;18.42;;
42294;SDS011;27947;47.556;18.718;2024-01-30T08:00:52;36.55;;;19.15;;
42294;SDS011;27947;47.556;18.718;2024-01-30T08:03:18;33.42;;;19.83;;
42294;SDS011;27947;47.556;18.718;2024-01-30T08:05:43;34.80;;;18.90;;
42294;SDS011;27947;47.556;18.718;2024-01-30T08:08:08;29.55;;;16.27;;
42294;SDS011;27947;47.556;18.718;2024-01-30T08:10:34;31.95;;;16.17;;
42294;SDS011;27947;47.556;18.718;2024-01-30T08:12:59;31.45;;;15.68;;
42294;SDS011;27947;47.556;18.718;2024-01-30T08:15:24;32.72;;;17.08;;
42294;SDS011;27947;47.556;18.718;2024-01-30T08:17:49;34.22;;;17.88;;
42294;SDS011;27947;47.556;18.718;2024-01-30T08:20:15;35.35;;;17.63;;
42294;SDS011;27947;47.556;18.718;2024-01-30T08:22:41;31.85;;;17.70;;
42294;SDS011;27947;47.556;18.718;2024-01-30T08:25:06;30.50;;;16.13;;
42294;SDS011;27947;47.556;18.718;2024-01-30T08:27:32;32.83;;;16.52;;
42294;SDS011;27947;47.556;18.718;2024-01-30T08:29:58;32.67;;;16.50;;
42294;SDS011;27947;47.556;18.718;2024-01-30T08:32:23;30.23;;;16.80;;
42294;SDS011;27947;47.556;18.718;2024-01-30T08:34:49;30.10;;;17.10;;
42294;SDS011;27947;47.556;18.718;2024-01-30T08:37:14;32.25;;;17.08;;
42294;SDS011;27947;47.556;18.718;2024-01-30T08:39:41;33.70;;;17.67;;
42294;SDS011;27947;47.556;18.718;2024-01-30T08:42:07;35.08;;;18.88;;
42294;SDS011;27947;47.556;18.718;2024-01-30T08:44:33;31.88;;;17.00;;
42294;SDS011;27947;47.556;18.718;2024-01-30T08:46:58;40.97;;;19.58;;
42294;SDS011;27947;47.556;18.718;2024-01-30T08:49:23;38.60;;;19.08;;
42294;SDS011;27947;47.556;18.718;2024-01-30T08:51:48;31.13;;;18.10;;
42294;SDS011;27947;47.556;18.718;2024-01-30T08:54:15;32.78;;;17.08;;
42294;SDS011;27947;47.556;18.718;2024-01-30T08:56:40;29.25;;;16.35;;
42294;SDS011;27947;47.556;18.718;2024-01-30T08:59:05;30.58;;;16.88;;
42294;SDS011;27947;47.556;18.718;2024-01-30T09:01:31;33.63;;;18.20;;
42294;SDS011;27947;47.556;18.718;2024-01-30T09:03:56;41.70;;;19.38;;
42294;SDS011;27947;47.556;18.718;2024-01-30T09:06:21;37.47;;;19.48;;
42294;SDS011;27947;47.556;18.718;2024-01-30T09:08:46;37.95;;;19.30;;
42294;SDS011;27947;47.556;18.718;2024-01-30T09:11:12;46.78;;;21.30;;
42294;SDS011;27947;47.556;18.718;2024-01-30T09:13:38;41.00;;;18.88;;
42294;SDS011;27947;47.556;18.718;2024-01-30T09:16:03;33.97;;;17.48;;
42294;SDS011;27947;47.556;18.718;2024-01-30T09:18:29;36.53;;;19.50;;
42294;SDS011;27947;47.556;18.718;2024-01-30T09:20:54;36.10;;;18.52;;
42294;SDS011;27947;47.556;18.718;2024-01-30T09:23:19;38.45;;;19.85;;
42294;SDS011;27947;47.556;18.718;2024-01-30T09:25:45;38.33;;;18.58;;
42294;SDS011;27947;47.556;18.718;2024-01-30T09:28:10;37.50;;;18.98;;
42294;SDS011;27947;47.556;18.718;2024-01-30T09:30:35;40.50;;;19.48;;
42294;SDS011;27947;47.556;18.718;2024-01-30T09:33:01;37.75;;;19.17;;
42294;SDS011;27947;47.556;18.718;2024-01-30T09:35:26;36.45;;;18.75;;
42294;SDS011;27947;47.556;18.718;2024-01-30T09:37:51;40.45;;;20.55;;
42294;SDS011;27947;47.556;18.718;2024-01-30T09:40:17;36.58;;;18.35;;
42294;SDS011;27947;47.556;18.718;2024-01-30T09:42:45;36.30;;;19.40;;
42294;SDS011;27947;47.556;18.718;2024-01-30T09:45:11;33.85;;;18.90;;
42294;SDS011;27947;47.556;18.718;2024-01-30T09:47:42;37.72;;;18.38;;
42294;SDS011;27947;47.556;18.718;2024-01-30T09:50:08;37.38;;;19.25;;
42294;SDS011;27947;47.556;18.718;2024-01-30T09:52:33;38.53;;;20.83;;
42294;SDS011;27947;47.556;18.718;2024-01-30T09:54:59;36.28;;;18.42;;
42294;SDS011;27947;47.556;18.718;2024-01-30T09:57:25;35.25;;;18.92;;
42294;SDS011;27947;47.556;18.718;2024-01-30T09:59:51;37.15;;;19.20;;
42294;SDS011;27947;47.556;18.718;2024-01-30T10:02:17;39.03;;;20.30;;
42294;SDS011;27947;47.556;18.718;2024-01-30T10:04:43;40.00;;;20.15;;
42294;SDS011;27947;47.556;18.718;2024-01-30T10:07:08;41.13;;;22.02;;
42294;SDS011;27947;47.556;18.718;2024-01-30T10:09:33;38.78;;;20.65;;
42294;SDS011;27947;47.556;18.718;2024-01-30T10:11:59;35.88;;;18.30;;
42294;SDS011;27947;47.556;18.718;2024-01-30T10:14:24;38.22;;;19.55;;
42294;SDS011;27947;47.556;18.718;2024-01-30T10:16:50;36.85;;;18.70;;
42294;SDS011;27947;47.556;18.718;2024-01-30T10:19:15;29.17;;;17.02;;
42294;SDS011;27947;47.556;18.718;2024-01-30T10:21:41;40.15;;;19.42;;
42294;SDS011;27947;47.556;18.718;2024-01-30T10:24:06;32.78;;;17.90;;
42294;SDS011;27947;47.556;18.718;2024-01-30T10:26:31;31.40;;;17.70;;
42294;SDS011;27947;47.556;18.718;2024-01-30T10:28:59;28.50;;;16.10;;
42294;SDS011;27947;47.556;18.718;2024-01-30T10:31:24;28.63;;;15.57;;
42294;SDS011;27947;47.556;18.718;2024-01-30T10:33:50;31.48;;;16.00;;
42294;SDS011;27947;47.556;18.718;2024-01-30T10:36:15;32.80;;;16.92;;
42294;SDS011;27947;47.556;18.718;2024-01-30T10:38:43;29.58;;;15.35;;
42294;SDS011;27947;47.556;18.718;2024-01-30T10:41:09;31.63;;;16.50;;
42294;SDS011;27947;47.556;18.718;2024-01-30T10:43:40;26.50;;;14.77;;
42294;SDS011;27947;47.556;18.718;2024-01-30T10:46:28;33.20;;;17.25;;
42294;SDS011;27947;47.556;18.718;2024-01-30T10:48:56;29.92;;;18.20;;
42294;SDS011;27947;47.556;18.718;2024-01-30T10:51:24;33.73;;;17.10;;
42294;SDS011;27947;47.556;18.718;2024-01-30T10:53:51;24.83;;;14.23;;
42294;SDS011;27947;47.556;18.718;2024-01-30T10:56:17;30.13;;;16.88;;
42294;SDS011;27947;47.556;18.718;2024-01-30T10:58:43;26.98;;;15.73;;
42294;SDS011;27947;47.556;18.718;2024-01-30T11:01:09;31.98;;;16.70;;
42294;SDS011;27947;47.556;18.718;2024-01-30T11:03:34;32.97;;;17.58;;
42294;SDS011;27947;47.556;18.718;2024-01-30T11:06:02;31.85;;;16.83;;
42294;SDS011;27947;47.556;18.718;2024-01-30T11:08:27;33.95;;;18.33;;
42294;SDS011;27947;47.556;18.718;2024-01-30T11:10:56;37.35;;;19.38;;
42294;SDS011;27947;47.556;18.718;2024-01-30T11:13:26;32.10;;;18.50;;
42294;SDS011;27947;47.556;18.718;2024-01-30T11:15:51;35.42;;;18.55;;
42294;SDS011;27947;47.556;18.718;2024-01-30T11:18:23;30.80;;;17.30;;
42294;SDS011;27947;47.556;18.718;2024-01-30T11:20:49;31.52;;;17.20;;
42294;SDS011;27947;47.556;18.718;2024-01-30T11:23:14;30.48;;;17.77;;
42294;SDS011;27947;47.556;18.718;2024-01-30T11:25:39;33.35;;;19.13;;
42294;SDS011;27947;47.556;18.718;2024-01-30T11:28:05;30.92;;;18.08;;
42294;SDS011;27947;47.556;18.718;2024-01-30T11:30:31;31.90;;;17.90;;
42294;SDS011;27947;47.556;18.718;2024-01-30T11:33:04;36.13;;;18.85;;
42294;SDS011;27947;47.556;18.718;2024-01-30T11:35:33;32.72;;;18.88;;
42294;SDS011;27947;47.556;18.718;2024-01-30T11:37:59;48.80;;;23.63;;
42294;SDS011;27947;47.556;18.718;2024-01-30T11:40:26;50.72;;;25.95;;
42294;SDS011;27947;47.556;18.718;2024-01-30T11:42:52;40.08;;;20.85;;
42294;SDS011;27947;47.556;18.718;2024-01-30T11:45:18;36.65;;;19.75;;
42294;SDS011;27947;47.556;18.718;2024-01-30T11:47:43;32.08;;;16.70;;
42294;SDS011;27947;47.556;18.718;2024-01-30T11:50:08;35.35;;;18.50;;
42294;SDS011;27947;47.556;18.718;2024-01-30T11:52:35;30.75;;;16.23;;
42294;SDS011;27947;47.556;18.718;2024-01-30T11:55:01;33.22;;;17.58;;
42294;SDS011;27947;47.556;18.718;2024-01-30T11:57:27;46.83;;;23.02;;
42294;SDS011;27947;47.556;18.718;2024-01-30T11:59:53;42.97;;;21.60;;
42294;SDS011;27947;47.556;18.718;2024-01-30T12:02:18;45.33;;;22.08;;
42294;SDS011;27947;47.556;18.718;2024-01-30T12:04:43;36.72;;;19.27;;
42294;SDS011;27947;47.556;18.718;2024-01-30T12:07:09;34.15;;;19.30;;
42294;SDS011;27947;47.556;18.718;2024-01-30T12:09:34;34.13;;;17.02;;
42294;SDS011;27947;47.556;18.718;2024-01-30T12:11:59;32.92;;;19.17;;
42294;SDS011;27947;47.556;18.718;2024-01-30T12:14:25;38.72;;;21.33;;
42294;SDS011;27947;47.556;18.718;2024-01-30T12:16:51;35.50;;;19.60;;
42294;SDS011;27947;47.556;18.718;2024-01-30T12:19:23;36.33;;;20.20;;
42294;SDS011;27947;47.556;18.718;2024-01-30T12:21:53;37.45;;;19.20;;
42294;SDS011;27947;47.556;18.718;2024-01-30T12:24:18;30.73;;;18.02;;
42294;SDS011;27947;47.556;18.718;2024-01-30T12:26:44;33.45;;;17.08;;
42294;SDS011;27947;47.556;18.718;2024-01-30T12:29:09;31.58;;;17.40;;
42294;SDS011;27947;47.556;18.718;2024-01-30T12:31:34;31.40;;;15.75;;
42294;SDS011;27947;47.556;18.718;2024-01-30T12:34:00;36.97;;;19.02;;
42294;SDS011;27947;47.556;18.718;2024-01-30T12:36:25;39.83;;;20.25;;
42294;SDS011;27947;47.556;18.718;2024-01-30T12:38:50;36.25;;;19.42;;
42294;SDS011;27947;47.556;18.718;2024-01-30T12:41:16;38.67;;;19.98;;
42294;SDS011;27947;47.556;18.718;2024-01-30T12:43:41;41.28;;;20.05;;
42294;SDS011;27947;47.556;18.718;2024-01-30T12:46:07;47.50;;;23.02;;
42294;SDS011;27947;47.556;18.718;2024-01-30T12:48:32;43.15;;;22.05;;
42294;SDS011;27947;47.556;18.718;2024-01-30T12:50:57;42.55;;;22.33;;
42294;SDS011;27947;47.556;18.718;2024-01-30T12:53:23;39.33;;;21.10;;
42294;SDS011;27947;47.556;18.718;2024-01-30T12:55:48;44.75;;;23.52;;
42294;SDS011;27947;47.556;18.718;2024-01-30T12:58:15;38.10;;;20.67;;
42294;SDS011;27947;47.556;18.718;2024-01-30T13:00:40;34.33;;;16.98;;
42294;SDS011;27947;47.556;18.718;2024-01-30T13:03:07;46.53;;;21.73;;
42294;SDS011;27947;47.556;18.718;2024-01-30T13:05:33;46.28;;;22.42;;
42294;SDS011;27947;47.556;18.718;2024-01-30T13:07:58;43.20;;;19.63;;
42294;SDS011;27947;47.556;18.718;2024-01-30T13:10:24;39.60;;;19.90;;
42294;SDS011;27947;47.556;18.718;2024-01-30T13:12:49;38.10;;;19.42;;
42294;SDS011;27947;47.556;18.718;2024-01-30T13:15:14;41.75;;;20.67;;
42294;SDS011;27947;47.556;18.718;2024-01-30T13:17:40;36.05;;;18.10;;
42294;SDS011;27947;47.556;18.718;2024-01-30T13:20:05;36.42;;;18.55;;
42294;SDS011;27947;47.556;18.718;2024-01-30T13:22:33;34.28;;;17.83;;
42294;SDS011;27947;47.556;18.718;2024-01-30T13:24:58;35.10;;;17.85;;
42294;SDS011;27947;47.556;18.718;2024-01-30T13:27:23;34.08;;;15.57;;
42294;SDS011;27947;47.556;18.718;2024-01-30T13:29:49;33.40;;;16.88;;
42294;SDS011;27947;47.556;18.718;2024-01-30T13:32:14;34.17;;;17.45;;
42294;SDS011;27947;47.556;18.718;2024-01-30T13:34:39;32.42;;;15.88;;
42294;SDS011;27947;47.556;18.718;2024-01-30T13:37:06;31.17;;;17.85;;
42294;SDS011;27947;47.556;18.718;2024-01-30T13:39:32;29.35;;;15.60;;
42294;SDS011;27947;47.556;18.718;2024-01-30T13:41:57;29.27;;;14.73;;
42294;SDS011;27947;47.556;18.718;2024-01-30T13:44:22;31.88;;;15.45;;
42294;SDS011;27947;47.556;18.718;2024-01-30T13:46:48;27.35;;;14.50;;
42294;SDS011;27947;47.556;18.718;2024-01-30T13:49:13;31.00;;;15.38;;
42294;SDS011;27947;47.556;18.718;2024-01-30T13:51:38;22.80;;;12.68;;
42294;SDS011;27947;47.556;18.718;2024-01-30T13:54:03;23.52;;;13.15;;
42294;SDS011;27947;47.556;18.718;2024-01-30T13:56:29;26.25;;;12.48;;
42294;SDS011;27947;47.556;18.718;2024-01-30T13:58:55;29.98;;;13.95;;